createdAt,value
2019-01-25T00:02:02.931Z,94491.74
2019-01-25T00:05:26.939Z,94482.72
2019-01-25T00:08:50.910Z,94489.17
2019-01-25T00:12:14.878Z,94486.84
2019-01-25T00:15:39.203Z,94481.37
2019-01-25T00:19:03.176Z,94484.72
2019-01-25T00:22:27.140Z,94486.31
2019-01-25T00:25:51.449Z,94483.45
2019-01-25T00:29:15.425Z,94478.55
2019-01-25T00:32:39.392Z,94484.81
2019-01-25T00:36:03.370Z,94484.20
2019-01-25T00:39:27.356Z,94491.25
2019-01-25T00:46:34.595Z,94485.84
2019-01-25T00:49:49.619Z,94486.62
2019-01-25T00:53:13.588Z,94489.48
2019-01-25T00:56:37.566Z,94490.98
2019-01-25T01:03:31.105Z,94490.71
2019-01-25T01:06:55.086Z,94502.16
2019-01-25T01:10:19.057Z,94505.52
2019-01-25T01:13:43.031Z,94506.00
2019-01-25T01:17:26.274Z,94501.59
2019-01-25T01:20:50.282Z,94496.22
2019-01-25T01:24:14.517Z,94509.67
2019-01-25T01:27:38.488Z,94512.73
2019-01-25T01:34:32.388Z,94512.95
2019-01-25T01:37:56.423Z,94522.08
2019-01-25T01:41:20.749Z,94526.97
2019-01-25T01:44:45.036Z,94530.88
2019-01-25T01:48:01.511Z,94530.61
2019-01-25T01:51:25.481Z,94527.93
2019-01-25T01:54:49.813Z,94529.37
2019-01-25T01:58:13.780Z,94532.77
2019-01-25T02:01:38.085Z,94533.31
2019-01-25T02:08:31.494Z,94530.42
2019-01-25T02:12:14.614Z,94537.15
2019-01-25T02:15:21.674Z,94542.94
2019-01-25T02:18:26.303Z,94542.37
2019-01-25T02:21:31.173Z,94546.26
2019-01-25T02:24:35.809Z,94549.84
2019-01-25T02:27:59.790Z,94544.45
2019-01-25T02:35:12.632Z,94538.88
2019-01-25T02:38:36.909Z,94540.11
2019-01-25T02:42:00.891Z,94541.77
2019-01-25T02:45:25.286Z,94545.14
2019-01-25T02:48:42.450Z,94545.77
2019-01-25T02:52:06.694Z,94545.17
2019-01-25T02:55:13.279Z,94548.25
2019-01-25T02:58:56.549Z,94551.69
2019-01-25T03:02:20.526Z,94548.31
2019-01-25T03:05:44.875Z,94552.71
2019-01-25T03:09:29.962Z,94552.14
2019-01-25T03:12:53.944Z,94550.17
2019-01-25T03:16:17.922Z,94557.93
2019-01-25T03:19:41.900Z,94558.86
2019-01-25T03:23:05.876Z,94558.50
2019-01-25T03:26:29.867Z,94562.52
2019-01-25T03:29:53.826Z,94567.70
2019-01-25T03:33:18.136Z,94566.85
2019-01-25T03:36:42.109Z,94568.24
2019-01-25T03:40:26.865Z,94577.59
2019-01-25T03:43:50.834Z,94583.70
2019-01-25T03:47:07.697Z,94582.20
2019-01-25T03:50:20.086Z,94575.69
2019-01-25T03:53:24.719Z,94580.66
2019-01-25T03:56:48.730Z,94591.25
2019-01-25T04:00:33.485Z,94592.78
2019-01-25T04:03:57.459Z,94585.06
2019-01-25T04:07:21.429Z,94586.06
2019-01-25T04:10:45.391Z,94597.22
2019-01-25T04:14:09.379Z,94594.55
2019-01-25T04:17:33.357Z,94601.75
2019-01-25T04:20:57.390Z,94602.05
2019-01-25T04:24:02.033Z,94601.58
2019-01-25T04:27:26.291Z,94598.34
2019-01-25T04:30:50.303Z,94607.13
2019-01-25T04:34:15.283Z,94608.70
2019-01-25T04:37:39.262Z,94606.34
2019-01-25T04:44:46.163Z,94608.94
2019-01-25T04:48:03.522Z,94605.73
2019-01-25T04:55:31.216Z,94612.75
2019-01-25T04:58:55.189Z,94612.20
2019-01-25T05:02:19.156Z,94609.33
2019-01-25T05:09:54.043Z,94608.27
2019-01-25T05:17:08.568Z,94609.92
2019-01-25T05:20:32.553Z,94607.88
2019-01-25T05:23:56.536Z,94619.47
2019-01-25T05:27:20.508Z,94618.49
2019-01-25T05:31:04.092Z,94615.42
2019-01-25T05:34:28.178Z,94616.32
2019-01-25T05:37:52.474Z,94616.72
2019-01-25T05:41:16.450Z,94620.77
2019-01-25T05:44:40.433Z,94625.55
2019-01-25T05:47:57.366Z,94626.09
2019-01-25T05:51:21.342Z,94626.69
2019-01-25T05:54:45.311Z,94629.91
2019-01-25T05:58:30.065Z,94636.70
2019-01-25T06:01:54.077Z,94643.39
2019-01-25T06:05:18.162Z,94638.31
2019-01-25T06:12:44.100Z,94646.48
2019-01-25T06:16:08.415Z,94644.75
2019-01-25T06:19:53.195Z,94653.34
2019-01-25T06:23:17.470Z,94651.39
2019-01-25T06:27:02.236Z,94648.76
2019-01-25T06:30:26.250Z,94656.73
2019-01-25T06:33:50.515Z,94661.02
2019-01-25T06:37:14.807Z,94659.22
2019-01-25T06:40:38.797Z,94663.02
2019-01-25T06:44:21.865Z,94666.52
2019-01-25T06:47:38.711Z,94669.34
2019-01-25T06:54:34.880Z,94676.97
2019-01-25T07:01:48.985Z,94677.52
2019-01-25T07:05:32.086Z,94670.59
2019-01-25T07:09:15.111Z,94680.02
2019-01-25T07:12:39.073Z,94679.59
2019-01-25T07:16:03.043Z,94683.45
2019-01-25T07:23:10.062Z,94687.89
2019-01-25T07:26:34.120Z,94691.89
2019-01-25T07:29:51.348Z,94693.73
2019-01-25T07:33:15.326Z,94692.98
2019-01-25T07:36:39.580Z,94694.45
2019-01-25T07:43:53.857Z,94704.04
2019-01-25T07:47:10.997Z,94704.39
2019-01-25T07:50:35.409Z,94717.13
2019-01-25T07:53:59.672Z,94719.48
2019-01-25T08:07:54.272Z,94727.34
2019-01-25T08:15:01.461Z,94738.14
2019-01-25T08:21:56.189Z,94740.97
2019-01-25T08:25:20.622Z,94742.66
2019-01-25T08:28:44.637Z,94743.58
2019-01-25T08:36:31.299Z,94743.20
2019-01-25T08:39:55.580Z,94744.10
2019-01-25T08:43:19.555Z,94748.75
2019-01-25T08:46:43.830Z,94753.67
2019-01-25T08:50:28.941Z,94752.22
2019-01-25T08:57:22.754Z,94755.63
2019-01-25T09:00:46.799Z,94764.03
2019-01-25T09:04:30.067Z,94755.58
2019-01-25T09:07:54.166Z,94761.58
2019-01-25T09:11:18.157Z,94753.36
2019-01-25T09:14:42.140Z,94765.16
2019-01-25T09:18:06.400Z,94765.50
2019-01-25T09:21:11.334Z,94774.54
2019-01-25T09:24:16.214Z,94770.84
2019-01-25T09:27:20.844Z,94770.34
2019-01-25T09:30:28.188Z,94777.09
2019-01-25T09:33:32.822Z,94774.02
2019-01-25T09:36:37.493Z,94778.73
2019-01-25T09:40:01.733Z,94782.01
2019-01-25T09:43:25.709Z,94776.08
2019-01-25T09:47:08.961Z,94784.20
2019-01-25T09:50:20.046Z,94781.59
2019-01-25T09:53:24.932Z,94783.66
2019-01-25T09:56:29.607Z,94792.48
2019-01-25T09:59:34.239Z,94792.76
2019-01-25T10:02:58.217Z,94791.50
2019-01-25T10:06:22.199Z,94786.04
2019-01-25T10:09:46.477Z,94798.14
2019-01-25T10:13:10.461Z,94794.52
2019-01-25T10:16:34.759Z,94796.14
2019-01-25T10:20:17.775Z,94782.83
2019-01-25T10:23:41.756Z,94784.34
2019-01-25T10:27:06.154Z,94790.94
2019-01-25T10:30:21.262Z,94781.32
2019-01-25T10:33:26.208Z,94788.08
2019-01-25T10:36:30.846Z,94789.05
2019-01-25T10:39:35.756Z,94786.05
2019-01-25T10:42:45.602Z,94791.30
2019-01-25T10:45:46.812Z,94792.31
2019-01-25T10:48:51.450Z,94791.97
2019-01-25T10:51:56.087Z,94790.09
2019-01-25T10:55:01.015Z,94788.61
2019-01-25T10:58:24.992Z,94791.42
2019-01-25T11:01:49.013Z,94792.30
2019-01-25T11:05:33.796Z,94787.81
2019-01-25T11:08:58.028Z,94791.00
2019-01-25T11:12:22.074Z,94789.43
2019-01-25T11:15:46.022Z,94791.22
2019-01-25T11:19:10.000Z,94799.55
2019-01-25T11:22:53.241Z,94795.55
2019-01-25T11:26:17.520Z,94797.55
2019-01-25T11:29:22.147Z,94784.77
2019-01-25T11:32:26.787Z,94784.05
2019-01-25T11:35:31.730Z,94783.38
2019-01-25T11:38:36.372Z,94783.27
2019-01-25T11:41:41.001Z,94779.91
2019-01-25T11:44:45.647Z,94778.41
2019-01-25T11:47:50.645Z,94775.89
2019-01-25T11:50:55.291Z,94782.88
2019-01-25T11:53:59.935Z,94781.83
2019-01-25T11:57:23.907Z,94784.88
2019-01-25T12:00:48.168Z,94791.85
2019-01-25T12:11:32.571Z,94795.99
2019-01-25T12:18:26.046Z,94792.58
2019-01-25T12:22:09.036Z,94785.91
2019-01-25T12:29:02.106Z,94781.63
2019-01-25T12:32:26.119Z,94789.94
2019-01-25T12:35:37.830Z,94785.76
2019-01-25T12:38:42.732Z,94781.55
2019-01-25T12:42:26.132Z,94784.96
2019-01-25T12:45:50.401Z,94781.42
2019-01-25T12:49:09.937Z,94779.05
2019-01-25T12:52:34.198Z,94774.91
2019-01-25T12:55:58.535Z,94776.02
2019-01-25T12:59:22.880Z,94771.52
2019-01-25T13:02:47.241Z,94784.34
2019-01-25T13:05:52.375Z,94789.22
2019-01-25T13:08:57.517Z,94794.75
2019-01-25T13:12:25.236Z,94795.83
2019-01-25T13:19:30.162Z,94798.78
2019-01-25T13:23:13.323Z,94800.08
2019-01-25T13:26:37.368Z,94797.80
2019-01-25T13:30:20.369Z,94798.86
2019-01-25T13:37:14.024Z,94809.77
2019-01-25T13:44:22.717Z,94802.37
2019-01-25T13:47:39.834Z,94800.38
2019-01-25T13:51:03.888Z,94809.47
2019-01-25T13:54:28.951Z,94819.17
2019-01-25T14:01:43.996Z,94808.27
2019-01-25T14:05:28.769Z,94809.70
2019-01-25T14:12:21.952Z,94813.12
2019-01-25T14:22:58.202Z,94803.48
2019-01-25T14:26:22.433Z,94796.74
2019-01-25T14:30:05.697Z,94801.41
2019-01-25T14:33:29.670Z,94802.83
2019-01-25T14:36:53.957Z,94817.19
2019-01-25T14:40:18.017Z,94814.59
2019-01-25T14:43:41.990Z,94815.07
2019-01-25T14:46:56.951Z,94819.52
2019-01-25T14:50:41.741Z,94821.59
2019-01-25T14:57:56.049Z,94815.75
2019-01-25T15:01:39.062Z,94813.95
2019-01-25T15:08:53.626Z,94825.91
2019-01-25T15:12:17.611Z,94828.98
2019-01-25T15:19:31.524Z,94845.08
2019-01-25T15:26:59.521Z,94866.01
2019-01-25T15:30:42.819Z,94863.70
2019-01-25T15:37:50.079Z,94878.92
2019-01-25T15:41:14.356Z,94880.50
2019-01-25T15:44:38.610Z,94877.14
2019-01-25T15:47:56.215Z,94883.09
2019-01-25T15:51:20.191Z,94893.22
2019-01-25T15:54:25.115Z,94884.80
2019-01-25T15:57:49.512Z,94893.97
2019-01-25T16:01:32.621Z,94892.05
2019-01-25T16:04:56.670Z,94886.52
2019-01-25T16:08:20.630Z,94889.27
2019-01-25T16:11:44.762Z,94897.38
2019-01-25T16:15:29.839Z,94900.28
2019-01-25T16:18:54.081Z,94908.75
2019-01-25T16:22:18.404Z,94910.98
2019-01-25T16:25:42.458Z,94912.45
2019-01-25T16:29:07.194Z,94910.80
2019-01-25T16:32:31.237Z,94915.31
2019-01-25T16:35:55.328Z,94913.36
2019-01-25T16:43:02.515Z,94902.49
2019-01-25T16:46:45.786Z,94902.03
2019-01-25T16:50:02.733Z,94901.89
2019-01-25T16:53:26.771Z,94900.00
2019-01-25T17:00:40.610Z,94904.84
2019-01-25T17:11:44.852Z,94913.78
2019-01-25T17:19:12.592Z,94906.11
2019-01-25T17:22:36.650Z,94905.02
2019-01-25T17:26:00.645Z,94907.09
2019-01-25T17:29:24.962Z,94910.70
2019-01-25T17:32:49.018Z,94910.80
2019-01-25T17:36:13.230Z,94915.49
2019-01-25T17:39:37.221Z,94919.84
2019-01-25T17:43:01.259Z,94919.50
2019-01-25T17:46:25.637Z,94921.38
2019-01-25T17:49:42.388Z,94921.66
2019-01-25T17:53:06.384Z,94923.28
2019-01-25T17:56:49.465Z,94921.67
2019-01-25T18:00:53.313Z,94929.31
2019-01-25T18:04:17.390Z,94928.63
2019-01-25T18:07:41.735Z,94925.61
2019-01-25T18:11:24.943Z,94929.19
2019-01-25T18:14:49.538Z,94919.40
2019-01-25T18:18:14.977Z,94924.42
2019-01-25T18:21:39.023Z,94929.31
2019-01-25T18:25:03.005Z,94933.41
2019-01-25T18:28:48.042Z,94930.38
2019-01-25T18:32:12.136Z,94926.88
2019-01-25T18:35:36.624Z,94923.82
2019-01-25T18:46:18.815Z,94933.85
2019-01-25T18:49:35.999Z,94934.29
2019-01-25T18:52:59.998Z,94930.34
2019-01-25T19:00:46.615Z,94935.65
2019-01-25T19:04:10.858Z,94946.08
2019-01-25T19:11:17.833Z,94936.08
2019-01-25T19:14:49.498Z,94941.41
2019-01-25T19:22:22.839Z,94948.94
2019-01-25T19:29:16.604Z,94968.17
2019-01-25T19:32:40.586Z,94971.78
2019-01-25T19:43:24.431Z,94974.88
2019-01-25T19:46:49.233Z,94982.42
2019-01-25T19:50:35.096Z,94973.56
2019-01-25T19:53:59.081Z,94974.84
2019-01-25T19:57:23.289Z,94968.81
2019-01-25T20:04:37.950Z,94962.55
2019-01-25T20:08:02.706Z,94967.06
2019-01-25T20:21:24.208Z,94969.48
2019-01-25T20:24:48.263Z,94964.67
2019-01-25T20:28:12.299Z,94961.91
2019-01-25T20:31:36.440Z,94960.16
2019-01-25T20:35:02.190Z,94962.78
2019-01-25T20:38:26.293Z,94965.83
2019-01-25T20:45:40.279Z,94949.23
2019-01-25T20:48:56.925Z,94944.00
2019-01-25T20:52:21.342Z,94939.53
2019-01-25T20:59:54.606Z,94945.16
2019-01-25T21:03:18.848Z,94951.31
2019-01-25T21:06:43.430Z,94951.47
2019-01-25T21:10:29.953Z,94952.39
2019-01-25T21:13:54.055Z,94953.66
2019-01-25T21:17:18.116Z,94946.91
2019-01-25T21:21:01.683Z,94944.86
2019-01-25T21:24:25.710Z,94950.48
2019-01-25T21:27:50.058Z,94948.60
2019-01-25T21:31:14.117Z,94945.86
2019-01-25T21:34:38.583Z,94941.56
2019-01-25T21:41:52.268Z,94921.02
2019-01-25T21:49:00.087Z,94913.37
2019-01-25T21:52:24.220Z,94913.67
2019-01-25T21:55:48.297Z,94905.96
2019-01-25T21:59:12.630Z,94908.20
2019-01-25T22:02:36.759Z,94901.45
2019-01-25T22:06:01.179Z,94904.83
2019-01-25T22:09:25.534Z,94909.56
2019-01-25T22:12:49.904Z,94897.92
2019-01-25T22:19:43.193Z,94892.68
2019-01-25T22:23:07.605Z,94895.84
2019-01-25T22:26:31.671Z,94893.98
2019-01-25T22:33:38.664Z,94879.52
2019-01-25T22:37:02.653Z,94880.34
2019-01-25T22:40:47.763Z,94888.00
2019-01-25T22:44:30.992Z,94883.04
2019-01-25T22:47:48.608Z,94879.02
2019-01-25T22:51:12.674Z,94875.33
2019-01-25T22:54:36.659Z,94865.78
2019-01-25T22:58:00.952Z,94861.30
2019-01-25T23:01:45.720Z,94856.39
2019-01-25T23:05:48.504Z,94851.52
2019-01-25T23:09:33.268Z,94853.33
2019-01-25T23:12:57.243Z,94845.44
2019-01-25T23:16:21.214Z,94855.41
2019-01-25T23:19:45.424Z,94836.49
2019-01-25T23:23:09.422Z,94842.17
2019-01-25T23:26:33.386Z,94841.98
2019-01-25T23:29:57.365Z,94833.82
2019-01-25T23:33:21.345Z,94837.33
2019-01-25T23:36:45.312Z,94836.40
2019-01-25T23:43:59.985Z,94834.39
2019-01-25T23:47:17.456Z,94816.89
2019-01-25T23:50:41.428Z,94819.41
2019-01-25T23:57:56.043Z,94803.91
